Time;durP1;ratioP1;P1;durP2;ratioP2;P2;SDS_P1;SDS_P2;PMS_P1;PMS_P2;Temp;Humidity;BMP_temperature;BMP_pressure;BME280_temperature;BME280_humidity;BME280_pressure;Samples;Min_cycle;Max_cycle;Signal;HPM_P1;HPM_P2
2024/04/25 00:00:43;;;;;;;12.23;4.70;;;6.20;99.90;;;;;;5405409;26;20255;-70
2024/04/25 00:03:09;;;;;;;4.77;4.27;;;6.20;99.90;;;;;;5405330;26;20618;-72
2024/04/25 00:05:34;;;;;;;6.73;4.83;;;6.20;99.90;;;;;;5404765;26;20251;-72
2024/04/25 00:08:00;;;;;;;8.93;4.90;;;6.20;99.90;;;;;;5405356;26;20204;-72
2024/04/25 00:10:25;;;;;;;7.80;4.70;;;6.30;99.90;;;;;;5405101;26;20205;-70
2024/04/25 00:12:51;;;;;;;8.93;4.40;;;6.30;99.90;;;;;;5404876;26;20217;-71
2024/04/25 00:15:16;;;;;;;8.23;4.60;;;6.20;99.90;;;;;;5405435;26;20286;-70
2024/04/25 00:17:42;;;;;;;12.80;4.70;;;6.30;99.90;;;;;;5405286;26;20216;-70
2024/04/25 00:20:08;;;;;;;6.60;4.67;;;6.30;99.90;;;;;;5404781;26;20279;-70
2024/04/25 00:22:34;;;;;;;5.80;4.70;;;6.30;99.90;;;;;;5404412;26;20340;-69
2024/04/25 00:24:59;;;;;;;7.60;4.40;;;6.30;99.90;;;;;;5405469;26;20236;-72
2024/04/25 00:27:25;;;;;;;6.13;4.20;;;6.30;99.90;;;;;;5405200;26;20562;-71
2024/04/25 00:29:50;;;;;;;8.80;4.73;;;6.30;99.90;;;;;;5404584;26;20224;-71
2024/04/25 00:32:16;;;;;;;8.67;5.00;;;6.30;99.90;;;;;;5404530;26;20229;-70
2024/04/25 00:34:41;;;;;;;6.40;4.97;;;6.30;99.90;;;;;;5404309;26;20220;-70
2024/04/25 00:37:07;;;;;;;5.73;4.80;;;6.30;99.90;;;;;;5405108;26;20664;-70
2024/04/25 00:39:32;;;;;;;10.20;5.00;;;6.20;99.90;;;;;;5404990;26;20750;-72
2024/04/25 00:41:58;;;;;;;9.10;5.00;;;6.20;99.90;;;;;;5404236;26;20628;-70
2024/04/25 00:44:24;;;;;;;7.53;5.30;;;6.20;99.90;;;;;;5404848;26;20213;-71
2024/04/25 00:46:50;;;;;;;6.10;4.60;;;6.20;99.90;;;;;;5404649;26;20294;-71
2024/04/25 00:49:16;;;;;;;5.57;5.00;;;6.10;99.90;;;;;;5408686;26;20221;-72
2024/04/25 00:51:42;;;;;;;6.37;4.87;;;6.10;99.90;;;;;;5405079;26;20236;-71
2024/04/25 00:54:08;;;;;;;9.37;5.70;;;6.10;99.90;;;;;;5404450;26;20322;-71
2024/04/25 00:56:36;;;;;;;5.47;4.53;;;6.10;99.90;;;;;;5404640;26;20314;-71
2024/04/25 00:59:03;;;;;;;12.13;5.43;;;6.10;99.90;;;;;;5404892;26;20615;-70
2024/04/25 01:01:31;;;;;;;8.13;4.90;;;6.10;99.90;;;;;;5404047;26;20240;-71
2024/04/25 01:03:59;;;;;;;10.33;5.00;;;6.10;99.90;;;;;;5404553;26;20255;-71
2024/04/25 01:06:28;;;;;;;9.93;5.40;;;6.00;99.90;;;;;;5404421;26;20368;-72
2024/04/25 01:08:54;;;;;;;8.97;5.50;;;5.90;99.90;;;;;;5403919;26;20228;-72
2024/04/25 01:11:20;;;;;;;7.57;4.87;;;5.80;99.90;;;;;;5372799;26;20739;-72
2024/04/25 01:13:46;;;;;;;7.27;5.30;;;5.70;99.90;;;;;;5404459;26;20268;-72
2024/04/25 01:16:13;;;;;;;6.40;5.27;;;5.60;99.90;;;;;;5405819;26;20258;-72
2024/04/25 01:18:39;;;;;;;9.43;5.50;;;5.60;99.90;;;;;;5407803;26;20553;-73
2024/04/25 01:21:04;;;;;;;10.33;5.50;;;5.60;99.90;;;;;;5407836;26;20258;-72
2024/04/25 01:23:35;;;;;;;6.20;5.17;;;5.60;99.90;;;;;;5407466;26;20555;-73
2024/04/25 01:26:03;;;;;;;11.50;5.70;;;5.50;99.90;;;;;;5407850;26;20316;-72
2024/04/25 01:28:31;;;;;;;11.00;6.20;;;5.40;99.90;;;;;;5407953;26;20212;-72
2024/04/25 01:30:57;;;;;;;8.43;6.10;;;5.40;99.90;;;;;;5407517;26;20825;-72
2024/04/25 01:33:23;;;;;;;10.83;5.73;;;5.40;99.90;;;;;;5407880;26;20757;-73
2024/04/25 01:35:49;;;;;;;7.70;5.47;;;5.30;99.90;;;;;;5387080;26;20220;-73
2024/04/25 01:38:15;;;;;;;12.77;5.63;;;5.30;99.90;;;;;;5388898;26;20266;-74
2024/04/25 01:40:41;;;;;;;11.43;6.97;;;5.20;99.90;;;;;;5388122;26;20265;-73
2024/04/25 01:43:06;;;;;;;9.60;5.63;;;5.20;99.90;;;;;;5389102;21;20261;-72
2024/04/25 01:45:32;;;;;;;9.63;6.17;;;5.20;99.90;;;;;;5372257;26;20738;-72
2024/04/25 01:47:58;;;;;;;7.93;6.20;;;5.20;99.90;;;;;;5341218;26;20245;-72
2024/04/25 01:50:23;;;;;;;9.53;6.03;;;5.20;99.90;;;;;;5372081;26;20210;-72
2024/04/25 01:52:49;;;;;;;8.97;5.97;;;5.30;99.90;;;;;;5371878;26;20716;-71
2024/04/25 01:55:14;;;;;;;13.33;6.33;;;5.30;99.90;;;;;;5371687;26;20319;-72
2024/04/25 01:57:40;;;;;;;10.17;6.73;;;5.30;99.90;;;;;;5372068;26;20205;-72
2024/04/25 02:00:06;;;;;;;10.33;6.97;;;5.30;99.90;;;;;;5370767;26;20680;-72
2024/04/25 02:02:32;;;;;;;16.20;7.23;;;5.30;99.90;;;;;;5371648;26;20277;-72
2024/04/25 02:04:57;;;;;;;8.57;7.03;;;5.20;99.90;;;;;;5372213;26;20260;-72
2024/04/25 02:07:23;;;;;;;11.93;6.60;;;5.20;99.90;;;;;;5371954;26;20351;-72
2024/04/25 02:09:48;;;;;;;9.13;7.00;;;5.30;99.90;;;;;;5370963;26;20294;-72
2024/04/25 02:12:14;;;;;;;12.07;7.43;;;5.30;99.90;;;;;;5341373;26;20280;-72
2024/04/25 02:14:39;;;;;;;11.17;7.13;;;5.30;99.90;;;;;;5371126;26;20257;-73
2024/04/25 02:17:05;;;;;;;11.50;6.50;;;5.30;99.90;;;;;;5372298;26;20225;-72
2024/04/25 02:19:31;;;;;;;17.20;7.57;;;5.30;99.90;;;;;;5371337;26;20613;-72
2024/04/25 02:27:24;;;;;;;10.97;6.83;;;5.40;99.90;;;;;;5371720;26;20268;-72
2024/04/25 02:29:50;;;;;;;8.97;6.53;;;5.30;99.90;;;;;;5371486;26;20213;-72
2024/04/25 02:32:16;;;;;;;14.13;7.80;;;5.30;99.90;;;;;;5371687;26;20591;-73
2024/04/25 02:34:41;;;;;;;10.07;6.40;;;5.30;99.90;;;;;;5371755;26;20701;-72
2024/04/25 02:37:07;;;;;;;8.90;6.70;;;5.30;99.90;;;;;;5369911;26;20230;-72
2024/04/25 02:39:32;;;;;;;12.70;6.70;;;5.20;99.90;;;;;;5371673;26;20284;-74
2024/04/25 02:41:58;;;;;;;11.07;6.60;;;5.20;99.90;;;;;;5371442;26;20233;-72
2024/04/25 02:44:23;;;;;;;9.00;6.67;;;5.20;99.90;;;;;;5371395;26;20210;-73
2024/04/25 02:46:49;;;;;;;11.90;7.33;;;5.10;99.90;;;;;;5371218;26;20299;-73
2024/04/25 02:49:15;;;;;;;18.23;8.00;;;5.10;99.90;;;;;;5371327;26;20782;-73
2024/04/25 02:51:41;;;;;;;9.67;7.13;;;5.10;99.90;;;;;;5370880;26;20579;-73
2024/04/25 02:54:07;;;;;;;12.10;7.93;;;5.10;99.90;;;;;;5371427;26;20217;-72
2024/04/25 02:56:33;;;;;;;14.77;7.77;;;5.00;99.90;;;;;;5371489;26;20213;-73
2024/04/25 02:58:58;;;;;;;13.00;8.50;;;5.00;99.90;;;;;;5371308;26;20217;-73
2024/04/25 03:01:24;;;;;;;12.70;7.70;;;5.00;99.90;;;;;;5371044;26;20739;-72
2024/04/25 03:03:49;;;;;;;16.07;8.20;;;5.00;99.90;;;;;;5370535;26;20229;-72
2024/04/25 03:06:15;;;;;;;13.67;7.80;;;4.90;99.90;;;;;;5370833;26;20213;-73
2024/04/25 03:08:41;;;;;;;13.13;8.80;;;4.80;99.90;;;;;;5371256;26;20209;-73
2024/04/25 03:11:06;;;;;;;12.83;9.00;;;4.80;99.90;;;;;;5370943;26;20205;-74
2024/04/25 03:13:32;;;;;;;15.83;9.37;;;4.80;99.90;;;;;;5370792;26;20748;-73
2024/04/25 03:16:02;;;;;;;12.93;9.10;;;4.80;99.90;;;;;;5370958;26;20244;-73
2024/04/25 03:18:28;;;;;;;17.03;9.67;;;4.80;99.90;;;;;;5371329;26;20226;-73
2024/04/25 03:20:53;;;;;;;18.43;9.63;;;4.70;99.90;;;;;;5370258;26;20210;-73
2024/04/25 03:23:19;;;;;;;10.80;9.37;;;4.70;99.90;;;;;;5370742;26;20265;-73
2024/04/25 03:25:45;;;;;;;12.87;8.67;;;4.70;99.90;;;;;;5370519;26;20260;-73
2024/04/25 03:28:10;;;;;;;10.63;8.97;;;4.60;99.90;;;;;;5370626;26;20724;-73
2024/04/25 03:30:36;;;;;;;15.70;10.33;;;4.60;99.90;;;;;;5370435;26;20256;-73
2024/04/25 03:33:02;;;;;;;16.40;9.43;;;4.60;99.90;;;;;;5370605;26;20237;-72
2024/04/25 03:35:28;;;;;;;15.83;10.30;;;4.60;99.90;;;;;;5370417;26;20497;-72
2024/04/25 03:37:53;;;;;;;11.00;9.30;;;4.50;99.90;;;;;;5370547;26;20213;-72
2024/04/25 03:40:19;;;;;;;17.60;9.97;;;4.50;99.90;;;;;;5369589;26;20246;-73
2024/04/25 03:42:45;;;;;;;17.60;9.53;;;4.40;99.90;;;;;;5369291;26;20229;-72
2024/04/25 03:45:10;;;;;;;18.03;10.00;;;4.40;99.90;;;;;;5370979;26;20301;-72
2024/04/25 03:47:36;;;;;;;22.07;10.07;;;4.30;99.90;;;;;;5370641;26;20205;-72
2024/04/25 03:50:01;;;;;;;13.73;9.93;;;4.20;99.90;;;;;;5370396;26;20271;-72
2024/04/25 03:52:27;;;;;;;10.80;9.90;;;4.10;99.90;;;;;;5370361;26;20222;-72
2024/04/25 03:54:52;;;;;;;15.93;9.87;;;4.10;99.90;;;;;;5370355;26;20696;-74
2024/04/25 03:57:18;;;;;;;11.93;9.77;;;4.10;99.90;;;;;;5370247;26;20272;-72
2024/04/25 03:59:44;;;;;;;22.67;9.70;;;4.00;99.90;;;;;;5370132;26;20558;-72
2024/04/25 04:02:10;;;;;;;13.17;10.07;;;4.00;99.90;;;;;;5370760;26;20225;-72
2024/04/25 04:04:35;;;;;;;11.07;9.47;;;3.90;99.90;;;;;;5370440;26;20264;-72
2024/04/25 04:07:01;;;;;;;14.17;10.30;;;3.90;99.90;;;;;;5368673;26;20218;-72
2024/04/25 04:09:26;;;;;;;16.57;10.07;;;3.80;99.90;;;;;;5370230;26;20256;-72
2024/04/25 04:11:52;;;;;;;11.20;10.07;;;3.80;99.90;;;;;;5369789;26;20262;-72
2024/04/25 04:14:18;;;;;;;15.70;10.80;;;3.80;99.90;;;;;;5370385;26;20252;-72
2024/04/25 04:16:43;;;;;;;16.97;10.37;;;3.80;99.90;;;;;;5370460;26;20600;-71
2024/04/25 04:19:09;;;;;;;12.47;10.03;;;3.80;99.90;;;;;;5370196;26;20209;-72
2024/04/25 04:21:34;;;;;;;18.20;10.90;;;3.90;99.90;;;;;;5369855;26;20872;-72
2024/04/25 04:24:00;;;;;;;19.93;10.23;;;3.90;99.90;;;;;;5370212;26;20839;-72
2024/04/25 04:26:26;;;;;;;18.07;9.73;;;4.00;99.90;;;;;;5369774;26;20222;-72
2024/04/25 04:28:51;;;;;;;12.30;9.83;;;4.00;99.90;;;;;;5369827;26;20317;-72
2024/04/25 04:31:17;;;;;;;17.83;10.53;;;4.00;99.90;;;;;;5370009;26;20314;-71
2024/04/25 04:33:42;;;;;;;20.97;11.10;;;4.10;99.90;;;;;;5369808;26;20286;-72
2024/04/25 04:36:08;;;;;;;15.73;10.17;;;4.10;99.90;;;;;;5368049;26;20225;-72
2024/04/25 04:38:35;;;;;;;16.73;10.20;;;4.20;99.90;;;;;;5369499;26;20272;-72
2024/04/25 04:41:00;;;;;;;21.57;11.60;;;4.20;99.90;;;;;;5369537;26;20317;-71
2024/04/25 04:43:26;;;;;;;14.67;11.07;;;4.20;99.90;;;;;;5369949;26;20226;-72
2024/04/25 04:45:55;;;;;;;14.90;10.60;;;4.10;99.90;;;;;;5369936;26;20256;-72
2024/04/25 04:48:22;;;;;;;13.03;10.07;;;4.10;99.90;;;;;;5369819;26;20209;-73
2024/04/25 04:50:47;;;;;;;15.17;10.60;;;4.10;99.90;;;;;;5367848;26;20213;-72
2024/04/25 04:53:13;;;;;;;16.37;9.80;;;4.10;99.90;;;;;;5369405;26;20276;-72
2024/04/25 04:55:40;;;;;;;28.73;11.60;;;4.20;99.90;;;;;;5369698;26;20213;-72
2024/04/25 04:58:08;;;;;;;15.53;10.17;;;4.20;99.90;;;;;;5370365;26;20257;-72
2024/04/25 05:00:34;;;;;;;11.70;9.83;;;4.20;99.90;;;;;;5369518;26;20225;-72
2024/04/25 05:03:00;;;;;;;12.90;9.63;;;4.20;99.90;;;;;;5369818;26;20260;-72
2024/04/25 05:05:25;;;;;;;17.87;8.80;;;4.20;99.90;;;;;;5369587;26;20607;-72
2024/04/25 05:07:56;;;;;;;15.47;8.97;;;4.20;99.90;;;;;;5368887;26;20339;-72
2024/04/25 05:10:25;;;;;;;11.10;8.30;;;4.20;99.90;;;;;;5369402;26;20278;-72
2024/04/25 05:12:52;;;;;;;10.77;8.53;;;4.20;99.90;;;;;;5368741;26;20229;-72
2024/04/25 05:15:17;;;;;;;9.60;8.70;;;4.20;99.90;;;;;;5369275;26;20315;-73
2024/04/25 05:17:43;;;;;;;10.00;8.27;;;4.30;99.90;;;;;;5337985;26;20728;-73
2024/04/25 05:20:09;;;;;;;13.43;8.17;;;4.40;99.90;;;;;;5368565;26;20213;-73
2024/04/25 05:22:36;;;;;;;11.33;7.53;;;4.40;99.90;;;;;;5368448;26;20233;-73
2024/04/25 05:25:02;;;;;;;8.47;7.57;;;4.50;99.90;;;;;;5369347;26;20318;-73
2024/04/25 05:27:28;;;;;;;14.27;7.80;;;4.60;99.90;;;;;;5368735;26;20625;-73
2024/04/25 05:29:54;;;;;;;11.53;7.63;;;4.60;99.90;;;;;;5368402;26;20210;-73
2024/04/25 05:32:19;;;;;;;8.20;7.50;;;4.70;99.90;;;;;;5337344;26;20229;-73
2024/04/25 05:34:45;;;;;;;9.80;6.53;;;4.90;99.90;;;;;;5367929;26;20880;-74
2024/04/25 05:37:11;;;;;;;8.37;6.90;;;4.90;99.90;;;;;;5368675;26;20282;-73
2024/04/25 05:39:37;;;;;;;8.67;7.30;;;5.00;99.90;;;;;;5367947;26;20210;-73
2024/04/25 05:42:02;;;;;;;8.00;6.73;;;5.00;99.90;;;;;;5368039;26;20732;-74
2024/04/25 05:44:29;;;;;;;9.20;7.30;;;5.10;99.90;;;;;;5368330;26;20209;-73
2024/04/25 05:46:54;;;;;;;11.03;7.20;;;5.20;99.90;;;;;;5337862;26;20225;-74
2024/04/25 05:49:20;;;;;;;9.77;7.27;;;5.30;99.90;;;;;;5368492;26;20284;-73
2024/04/25 05:51:46;;;;;;;12.77;9.30;;;5.40;99.90;;;;;;5368326;26;20314;-73
2024/04/25 05:54:11;;;;;;;14.60;8.90;;;5.50;99.90;;;;;;5368079;26;20256;-73
2024/04/25 05:56:37;;;;;;;17.27;8.50;;;5.60;99.90;;;;;;5368098;26;20205;-73
2024/04/25 05:59:02;;;;;;;11.50;9.30;;;5.80;99.90;;;;;;5368173;26;20210;-74
2024/04/25 06:01:28;;;;;;;11.10;8.17;;;5.90;99.90;;;;;;5368203;26;20209;-73
2024/04/25 06:03:53;;;;;;;16.60;10.00;;;6.00;99.90;;;;;;5371594;26;20272;-73
2024/04/25 06:06:19;;;;;;;13.10;11.03;;;6.10;99.90;;;;;;5371624;26;20217;-73
2024/04/25 06:08:45;;;;;;;12.80;10.60;;;6.10;99.90;;;;;;5340752;26;20230;-74
2024/04/25 06:11:10;;;;;;;15.10;10.63;;;6.30;99.90;;;;;;5371594;26;20217;-74
2024/04/25 06:13:36;;;;;;;15.37;11.10;;;6.40;99.90;;;;;;5365386;26;20254;-73
2024/04/25 06:16:04;;;;;;;13.27;10.33;;;6.40;99.90;;;;;;5360500;26;20795;-73
2024/04/25 06:18:30;;;;;;;20.23;10.70;;;6.40;99.90;;;;;;5371596;26;20317;-73
2024/04/25 06:20:56;;;;;;;14.77;9.90;;;6.50;99.90;;;;;;5371016;26;20230;-73
2024/04/25 06:23:22;;;;;;;16.37;10.70;;;6.40;99.90;;;;;;5371590;26;20266;-74
2024/04/25 06:25:47;;;;;;;10.77;9.13;;;6.50;99.90;;;;;;5371206;26;20244;-74
2024/04/25 06:28:13;;;;;;;9.70;8.33;;;6.60;99.90;;;;;;5340496;26;20225;-73
2024/04/25 06:30:38;;;;;;;14.03;8.77;;;6.70;99.90;;;;;;5371137;26;20222;-74
2024/04/25 06:33:04;;;;;;;11.40;9.37;;;6.80;99.90;;;;;;5371053;26;20264;-74
2024/04/25 06:35:30;;;;;;;18.50;10.93;;;7.00;99.90;;;;;;5370924;26;20250;-73
2024/04/25 06:37:55;;;;;;;19.37;11.80;;;7.00;99.90;;;;;;5370271;26;20217;-73
2024/04/25 06:40:21;;;;;;;20.83;10.80;;;7.00;99.90;;;;;;5371134;26;20310;-73
2024/04/25 06:42:47;;;;;;;19.20;10.20;;;7.20;99.90;;;;;;5370656;26;20720;-73
2024/04/25 06:45:13;;;;;;;12.90;10.87;;;7.20;99.90;;;;;;5371567;26;20217;-73
2024/04/25 06:47:41;;;;;;;13.40;11.20;;;7.40;99.90;;;;;;5371448;26;20605;-73
2024/04/25 06:50:07;;;;;;;15.10;11.10;;;7.80;99.90;;;;;;5371098;26;20213;-73
2024/04/25 06:52:32;;;;;;;11.07;9.33;;;8.20;99.90;;;;;;5371895;26;20280;-73
2024/04/25 06:54:58;;;;;;;13.33;8.83;;;8.50;99.90;;;;;;5371314;26;20299;-73
2024/04/25 06:57:26;;;;;;;13.67;8.40;;;8.60;99.90;;;;;;5370323;26;20755;-73
2024/04/25 06:59:52;;;;;;;13.63;8.50;;;8.70;99.90;;;;;;5370744;26;20260;-74
2024/04/25 07:02:19;;;;;;;8.93;7.60;;;8.90;99.90;;;;;;5371003;26;20238;-74
2024/04/25 07:04:46;;;;;;;13.33;8.20;;;9.10;99.90;;;;;;5371266;26;20710;-74
2024/04/25 07:07:11;;;;;;;16.00;8.83;;;9.20;99.90;;;;;;5369894;26;20222;-73
2024/04/25 07:09:37;;;;;;;17.17;8.70;;;9.20;1.00;;;;;;5370312;26;20329;-73
2024/04/25 07:12:05;;;;;;;14.50;8.60;;;9.10;1.00;;;;;;5370491;26;20276;-73
2024/04/25 07:14:31;;;;;;;14.73;8.07;;;9.00;1.00;;;;;;5369667;26;20728;-74
2024/04/25 07:16:56;;;;;;;14.47;8.53;;;9.00;1.00;;;;;;5371311;26;20278;-73
2024/04/25 07:19:22;;;;;;;13.60;9.13;;;8.80;1.00;;;;;;5370610;26;20213;-73
2024/04/25 07:21:48;;;;;;;13.67;8.80;;;8.70;1.00;;;;;;5370571;26;20673;-73
2024/04/25 07:24:13;;;;;;;14.03;8.67;;;8.70;1.00;;;;;;5370724;26;20677;-73
2024/04/25 07:26:39;;;;;;;10.60;9.37;;;8.80;1.00;;;;;;5371427;26;20259;-73
2024/04/25 07:29:05;;;;;;;11.93;9.30;;;8.90;1.00;;;;;;5370741;26;20213;-72
2024/04/25 07:31:30;;;;;;;11.23;8.63;;;8.70;1.00;;;;;;5370685;26;20252;-73
2024/04/25 07:33:56;;;;;;;13.00;8.60;;;8.40;1.00;;;;;;5370204;26;20705;-73
2024/04/25 07:36:22;;;;;;;12.60;8.93;;;8.10;1.00;;;;;;5370613;26;20260;-73
2024/04/25 07:38:49;;;;;;;11.13;9.23;;;8.00;1.00;;;;;;5370321;26;20252;-73
2024/04/25 07:41:14;;;;;;;13.27;8.87;;;7.80;1.00;;;;;;5370513;26;20243;-73
2024/04/25 07:43:40;;;;;;;10.80;9.57;;;7.80;1.00;;;;;;5370824;26;20724;-73
2024/04/25 07:46:11;;;;;;;12.10;9.23;;;8.00;1.00;;;;;;5370723;26;20382;-73
2024/04/25 07:48:37;;;;;;;11.70;8.83;;;8.30;1.00;;;;;;5370177;26;20244;-73
2024/04/25 07:51:03;;;;;;;14.57;8.97;;;8.60;1.00;;;;;;5369763;26;20708;-73
2024/04/25 07:53:29;;;;;;;10.77;7.60;;;9.00;1.00;;;;;;5369715;26;20237;-74
2024/04/25 07:55:54;;;;;;;11.07;7.40;;;9.20;1.00;;;;;;5370372;26;20210;-73
2024/04/25 07:58:20;;;;;;;9.37;6.90;;;9.30;99.90;;;;;;5370296;26;20222;-73
2024/04/25 08:00:46;;;;;;;9.07;6.20;;;9.40;99.90;;;;;;5369830;26;20261;-73
2024/04/25 08:03:11;;;;;;;11.57;7.23;;;9.40;99.90;;;;;;5370615;26;20225;-72
2024/04/25 08:05:37;;;;;;;9.57;6.37;;;9.30;99.90;;;;;;5370313;26;20265;-73
2024/04/25 08:08:03;;;;;;;9.57;5.67;;;9.10;99.90;;;;;;5370078;26;20701;-73
2024/04/25 08:10:29;;;;;;;13.03;6.40;;;9.20;99.90;;;;;;5369835;26;20213;-74
2024/04/25 08:12:54;;;;;;;10.67;6.00;;;9.40;99.90;;;;;;5369847;26;20767;-72
2024/04/25 08:15:20;;;;;;;12.00;7.07;;;9.50;99.90;;;;;;5370177;26;20252;-73
2024/04/25 08:17:48;;;;;;;10.60;5.90;;;9.70;99.90;;;;;;5369245;26;20756;-72
2024/04/25 08:20:14;;;;;;;7.93;5.77;;;9.80;99.90;;;;;;5369143;26;20226;-71
2024/04/25 08:22:40;;;;;;;6.87;5.60;;;9.80;99.90;;;;;;5339109;26;20284;-72
2024/04/25 08:25:06;;;;;;;11.43;6.43;;;9.80;99.90;;;;;;5369548;26;20272;-73
2024/04/25 08:27:32;;;;;;;8.40;5.93;;;9.80;99.90;;;;;;5369852;26;20553;-72
2024/04/25 08:29:58;;;;;;;12.13;6.33;;;9.70;99.90;;;;;;5369326;26;20575;-72
2024/04/25 08:32:23;;;;;;;12.00;6.80;;;9.50;99.90;;;;;;5367222;26;20317;-72
2024/04/25 08:34:49;;;;;;;8.13;6.60;;;9.30;99.90;;;;;;5368355;26;20285;-73
2024/04/25 08:37:15;;;;;;;8.10;6.60;;;9.10;99.90;;;;;;5371145;26;20685;-73
2024/04/25 08:39:41;;;;;;;8.77;6.20;;;9.30;99.90;;;;;;5370554;26;20285;-75
2024/04/25 08:42:09;;;;;;;8.53;6.07;;;9.50;99.90;;;;;;5368868;26;20268;-73
2024/04/25 08:44:37;;;;;;;12.30;5.97;;;9.50;99.90;;;;;;5340358;26;20218;-73
2024/04/25 08:47:04;;;;;;;7.70;6.20;;;9.90;99.90;;;;;;5371239;26;20700;-73
2024/04/25 08:49:32;;;;;;;13.57;5.70;;;10.30;99.90;;;;;;5370846;26;20217;-72
2024/04/25 08:51:59;;;;;;;10.43;5.73;;;10.80;99.90;;;;;;5369928;26;20282;-73
2024/04/25 08:54:25;;;;;;;6.37;4.53;;;11.30;99.90;;;;;;5369810;26;20213;-73
2024/04/25 08:56:53;;;;;;;9.43;5.50;;;11.60;99.90;;;;;;5338008;26;20221;-73
2024/04/25 08:59:19;;;;;;;6.00;4.70;;;11.80;99.90;;;;;;5369320;26;20209;-73
2024/04/25 09:01:48;;;;;;;12.13;4.90;;;11.90;99.90;;;;;;5338065;26;20259;-73
2024/04/25 09:04:18;;;;;;;10.87;5.13;;;11.60;99.90;;;;;;5369249;26;20563;-73
2024/04/25 09:06:45;;;;;;;5.13;4.63;;;11.30;99.90;;;;;;5369236;26;20552;-72
2024/04/25 09:09:11;;;;;;;5.57;4.27;;;11.30;99.90;;;;;;5369111;26;20245;-73
2024/04/25 09:11:40;;;;;;;9.17;4.30;;;11.30;99.90;;;;;;5368752;26;20268;-73
2024/04/25 09:14:06;;;;;;;7.27;4.80;;;11.20;99.90;;;;;;5368537;26;20217;-73
2024/04/25 09:16:36;;;;;;;7.70;5.07;;;11.20;99.90;;;;;;5368775;26;20213;-73
2024/04/25 09:19:02;;;;;;;5.43;3.73;;;11.20;99.90;;;;;;5369130;26;20696;-72
2024/04/25 09:21:27;;;;;;;7.10;4.43;;;11.00;99.90;;;;;;5368545;26;20214;-72
2024/04/25 09:23:54;;;;;;;9.40;4.07;;;10.90;99.90;;;;;;5368756;26;20229;-72
2024/04/25 09:26:20;;;;;;;5.87;3.80;;;10.90;99.90;;;;;;5369214;26;20557;-72
2024/04/25 09:28:46;;;;;;;6.57;3.97;;;10.90;99.90;;;;;;5368365;26;20226;-74
2024/04/25 09:31:12;;;;;;;5.47;3.77;;;10.70;99.90;;;;;;5368919;26;20551;-73
2024/04/25 09:33:38;;;;;;;6.03;4.10;;;10.70;99.90;;;;;;5367347;26;20229;-73
2024/04/25 09:36:07;;;;;;;7.40;4.40;;;10.60;99.90;;;;;;5368727;26;20338;-72
2024/04/25 09:38:33;;;;;;;7.90;3.90;;;10.60;99.90;;;;;;5371581;26;20272;-72
2024/04/25 09:41:01;;;;;;;6.17;4.60;;;10.70;99.90;;;;;;5371879;26;20233;-72
2024/04/25 09:43:27;;;;;;;6.97;4.13;;;10.80;99.90;;;;;;5371867;26;20597;-72
2024/04/25 09:45:59;;;;;;;7.40;4.10;;;10.80;99.90;;;;;;5371375;26;20217;-72
2024/04/25 09:48:32;;;;;;;9.70;4.50;;;10.70;99.90;;;;;;5371389;26;20209;-73
2024/04/25 09:51:02;;;;;;;6.50;3.90;;;10.60;99.90;;;;;;5371990;26;20298;-72
2024/04/25 09:54:01;;;;;;;8.03;4.17;;;10.50;99.90;;;;;;5371685;26;20712;-72
2024/04/25 09:56:30;;;;;;;6.50;4.20;;;10.70;99.90;;;;;;5306024;26;20313;-73
2024/04/25 09:59:33;;;;;;;5.37;3.73;;;10.70;99.90;;;;;;5336978;26;20627;-72
2024/04/25 10:02:03;;;;;;;6.80;3.97;;;10.90;99.90;;;;;;5362731;26;20226;-73
2024/04/25 10:04:34;;;;;;;4.33;3.90;;;11.20;99.90;;;;;;5371291;26;20229;-72
2024/04/25 10:07:02;;;;;;;5.17;3.60;;;11.40;99.90;;;;;;5371944;26;20612;-72
2024/04/25 10:09:29;;;;;;;5.97;3.97;;;11.20;99.90;;;;;;5371894;26;20629;-72
2024/04/25 10:11:58;;;;;;;6.60;3.67;;;10.90;99.90;;;;;;5371647;26;20547;-72
2024/04/25 10:14:25;;;;;;;4.67;3.27;;;10.80;99.90;;;;;;5340474;26;20229;-72
2024/04/25 10:16:51;;;;;;;6.50;3.40;;;10.80;99.90;;;;;;5371308;26;20213;-72
2024/04/25 10:19:17;;;;;;;3.97;3.60;;;10.90;99.90;;;;;;5371701;26;20218;-72
2024/04/25 10:21:46;;;;;;;5.70;3.67;;;11.10;99.90;;;;;;5371357;26;20744;-72
2024/04/25 10:24:15;;;;;;;6.60;3.50;;;11.40;99.90;;;;;;5372093;26;20218;-72
2024/04/25 10:26:48;;;;;;;7.23;4.00;;;11.50;99.90;;;;;;5371418;26;20266;-72
2024/04/25 10:29:13;;;;;;;6.17;4.10;;;11.70;99.90;;;;;;5371394;26;20343;-72
2024/04/25 10:31:40;;;;;;;5.90;3.80;;;11.60;99.90;;;;;;5370955;26;20221;-72
2024/04/25 10:34:06;;;;;;;8.47;3.77;;;11.50;99.90;;;;;;5371430;26;20210;-73
2024/04/25 10:36:32;;;;;;;13.93;4.40;;;11.60;99.90;;;;;;5371301;26;20213;-72
2024/04/25 10:38:59;;;;;;;8.73;3.70;;;11.80;99.90;;;;;;5371472;26;20256;-72
2024/04/25 10:41:35;;;;;;;6.93;3.80;;;11.80;99.90;;;;;;5370953;26;20313;-72
2024/04/25 10:44:04;;;;;;;4.43;3.50;;;11.80;99.90;;;;;;5371234;26;20666;-72
2024/04/25 10:46:30;;;;;;;5.87;3.97;;;11.80;99.90;;;;;;5371273;26;20217;-72
2024/04/25 10:48:56;;;;;;;6.93;3.87;;;11.90;99.90;;;;;;5369618;26;20609;-72
2024/04/25 10:51:22;;;;;;;9.20;3.63;;;12.00;99.90;;;;;;5371297;26;20214;-72
2024/04/25 10:53:48;;;;;;;10.80;3.70;;;12.00;99.90;;;;;;5340052;26;20569;-72
2024/04/25 10:56:16;;;;;;;9.37;3.70;;;12.00;99.90;;;;;;5340056;26;20265;-72
2024/04/25 10:58:55;;;;;;;5.23;4.07;;;12.20;99.90;;;;;;5371182;26;20213;-72
2024/04/25 11:01:28;;;;;;;6.87;3.20;;;12.40;99.90;;;;;;5370947;26;20213;-73
2024/04/25 11:03:59;;;;;;;6.90;4.27;;;12.70;99.20;;;;;;5370757;26;20277;-73
2024/04/25 11:06:26;;;;;;;8.50;4.20;;;12.80;97.90;;;;;;5370874;26;20214;-72
2024/04/25 11:08:52;;;;;;;6.67;3.90;;;12.90;95.90;;;;;;5370774;26;20264;-73
2024/04/25 11:11:18;;;;;;;14.13;6.33;;;12.90;94.60;;;;;;5339766;26;20229;-73
2024/04/25 11:13:44;;;;;;;5.33;3.40;;;13.10;95.40;;;;;;5370666;26;20755;-72
2024/04/25 11:16:10;;;;;;;12.43;4.40;;;13.20;91.30;;;;;;5370786;26;20252;-73
2024/04/25 11:18:37;;;;;;;4.57;3.50;;;13.10;92.60;;;;;;5370970;26;20201;-72
2024/04/25 11:21:04;;;;;;;15.20;3.93;;;12.90;90.40;;;;;;5370642;26;20329;-72
2024/04/25 11:23:33;;;;;;;7.20;3.33;;;12.70;94.30;;;;;;5370683;26;20599;-72
2024/04/25 11:26:03;;;;;;;7.50;3.67;;;12.60;93.20;;;;;;5370491;26;20222;-73
2024/04/25 11:28:29;;;;;;;22.50;6.87;;;12.40;92.90;;;;;;5370555;26;20322;-72
2024/04/25 11:30:56;;;;;;;18.47;5.23;;;12.30;92.30;;;;;;5370490;26;20218;-72
2024/04/25 11:33:24;;;;;;;6.80;4.33;;;12.40;95.30;;;;;;5370775;26;20557;-73
2024/04/25 11:35:50;;;;;;;5.00;4.00;;;12.40;97.50;;;;;;5370626;26;20252;-71
2024/04/25 11:38:18;;;;;;;17.83;5.30;;;12.50;94.00;;;;;;5370805;26;20732;-71
2024/04/25 11:40:45;;;;;;;8.57;4.30;;;12.40;92.50;;;;;;5370195;26;20266;-72
2024/04/25 11:43:15;;;;;;;4.47;3.60;;;12.40;92.10;;;;;;5370684;26;20301;-72
2024/04/25 11:45:45;;;;;;;7.57;4.40;;;12.50;91.20;;;;;;5339534;26;20229;-73
2024/04/25 11:48:12;;;;;;;7.67;4.10;;;12.60;93.50;;;;;;5369370;26;20206;-72
2024/04/25 11:50:40;;;;;;;3.90;3.50;;;12.80;92.20;;;;;;5334968;26;20323;-72
2024/04/25 11:53:09;;;;;;;3.67;3.30;;;13.00;92.80;;;;;;5335413;26;20265;-72
2024/04/25 11:55:36;;;;;;;5.80;3.43;;;13.20;88.90;;;;;;5369956;26;20552;-72
2024/04/25 11:58:01;;;;;;;3.57;3.27;;;13.20;88.90;;;;;;5370047;26;20214;-72
2024/04/25 12:00:27;;;;;;;4.23;3.20;;;13.10;85.80;;;;;;5369422;26;20253;-72
2024/04/25 12:02:53;;;;;;;4.67;3.20;;;13.00;81.20;;;;;;5369599;26;20221;-72
2024/04/25 12:05:18;;;;;;;5.33;3.40;;;12.90;76.70;;;;;;5370210;26;20255;-73
2024/04/25 12:07:49;;;;;;;6.53;3.33;;;12.70;76.20;;;;;;5369940;26;20221;-73
2024/04/25 12:10:15;;;;;;;5.80;3.50;;;12.50;76.50;;;;;;5370098;26;20260;-72
2024/04/25 12:12:41;;;;;;;5.37;3.40;;;12.30;79.20;;;;;;5369614;26;20225;-72
2024/04/25 12:15:07;;;;;;;3.87;2.93;;;12.20;79.70;;;;;;5370464;26;20218;-72
2024/04/25 12:17:33;;;;;;;5.13;3.27;;;12.20;82.90;;;;;;5338945;26;20218;-73
2024/04/25 12:20:01;;;;;;;4.03;3.20;;;12.00;83.20;;;;;;5369516;26;20217;-72
2024/04/25 12:22:27;;;;;;;5.57;3.90;;;11.90;86.50;;;;;;5369425;26;20595;-71
2024/04/25 12:24:53;;;;;;;5.23;3.13;;;11.60;84.10;;;;;;5369141;26;20252;-72
2024/04/25 12:27:19;;;;;;;7.97;4.00;;;11.30;87.40;;;;;;5339005;26;20221;-72
2024/04/25 12:29:44;;;;;;;3.70;3.30;;;11.30;93.70;;;;;;5369324;26;20213;-72
2024/04/25 12:32:10;;;;;;;5.63;3.40;;;11.20;92.20;;;;;;5369397;26;20717;-72
2024/04/25 12:34:36;;;;;;;25.50;11.17;;;11.10;86.10;;;;;;5369160;26;20213;-73
2024/04/25 12:37:02;;;;;;;17.70;9.30;;;11.10;91.80;;;;;;5369687;26;20225;-71
2024/04/25 12:39:29;;;;;;;16.40;7.57;;;11.20;92.10;;;;;;5369158;26;20237;-72
2024/04/25 12:41:56;;;;;;;8.93;5.63;;;11.40;90.70;;;;;;5369060;26;20217;-72
2024/04/25 12:44:21;;;;;;;8.47;5.40;;;11.60;82.10;;;;;;5369454;26;20328;-72
2024/04/25 12:46:47;;;;;;;25.07;14.63;;;11.80;82.80;;;;;;5369081;26;20290;-72
2024/04/25 12:49:36;;;;;;;31.87;16.03;;;12.00;82.20;;;;;;5369317;26;20756;-73